Time;durP1;ratioP1;P1;durP2;ratioP2;P2;SDS_P1;SDS_P2;PMS_P1;PMS_P2;Temp;Humidity;BMP_temperature;BMP_pressure;BME280_temperature;BME280_humidity;BME280_pressure;Samples;Min_cycle;Max_cycle;Signal;HPM_P1;HPM_P2
2023/06/10 00:01:24;;;;;;;9.43;7.20;;;15.50;63.90;;;;;;5006840;28;20422;-57
2023/06/10 00:03:51;;;;;;;10.50;8.17;;;15.50;64.30;;;;;;5019275;28;20194;-57
2023/06/10 00:06:17;;;;;;;10.97;7.03;;;15.40;64.60;;;;;;5022234;28;20215;-55
2023/06/10 00:08:43;;;;;;;8.70;7.30;;;15.40;65.00;;;;;;5018459;28;20792;-56
2023/06/10 00:11:10;;;;;;;10.30;7.63;;;15.40;65.40;;;;;;5023981;28;20418;-57
2023/06/10 00:13:36;;;;;;;9.17;7.30;;;15.30;65.50;;;;;;5026741;28;20258;-56
2023/06/10 00:16:03;;;;;;;9.03;7.63;;;15.30;65.80;;;;;;5021530;28;20429;-55
2023/06/10 00:18:30;;;;;;;9.20;8.10;;;15.20;65.80;;;;;;5027416;28;20568;-55
2023/06/10 00:21:02;;;;;;;13.07;9.40;;;15.20;66.30;;;;;;5022057;28;20433;-56
2023/06/10 00:23:30;;;;;;;10.63;9.00;;;15.20;67.40;;;;;;5026740;28;20493;-55
2023/06/10 00:25:59;;;;;;;8.63;7.43;;;15.10;66.90;;;;;;5031647;28;20476;-59
2023/06/10 00:28:25;;;;;;;10.37;8.40;;;15.10;67.50;;;;;;5022015;28;20507;-56
2023/06/10 00:30:51;;;;;;;15.20;7.93;;;15.00;68.00;;;;;;5026310;28;20446;-55
2023/06/10 00:33:17;;;;;;;11.13;8.03;;;15.10;68.00;;;;;;5025225;28;20442;-55
2023/06/10 00:35:42;;;;;;;9.30;7.70;;;15.00;68.40;;;;;;5026878;28;20446;-57
2023/06/10 00:38:08;;;;;;;9.73;7.10;;;15.00;68.60;;;;;;5010155;28;20183;-54
2023/06/10 00:40:40;;;;;;;10.60;8.30;;;15.00;68.90;;;;;;5023794;28;20180;-58
2023/06/10 00:43:07;;;;;;;9.80;7.93;;;14.90;69.10;;;;;;5024658;28;20568;-56
2023/06/10 00:45:32;;;;;;;10.70;7.70;;;14.90;69.80;;;;;;5026755;28;20458;-56
2023/06/10 00:47:59;;;;;;;10.83;8.27;;;14.90;70.50;;;;;;5031112;28;20415;-56
2023/06/10 00:50:25;;;;;;;9.30;7.63;;;14.80;70.80;;;;;;4992977;28;20247;-54
2023/06/10 00:52:52;;;;;;;10.83;7.43;;;14.80;71.30;;;;;;5008867;28;20474;-56
2023/06/10 00:55:18;;;;;;;8.93;7.90;;;14.70;71.50;;;;;;5009580;28;20418;-55
2023/06/10 00:57:46;;;;;;;9.90;8.00;;;14.70;72.10;;;;;;5028632;28;20517;-54
2023/06/10 01:00:13;;;;;;;12.40;7.87;;;14.70;72.30;;;;;;5019868;28;20282;-56
2023/06/10 01:02:39;;;;;;;10.13;8.10;;;14.70;72.90;;;;;;5022124;28;20453;-56
2023/06/10 01:05:05;;;;;;;9.00;7.90;;;14.60;73.00;;;;;;5027404;28;20454;-56
2023/06/10 01:07:37;;;;;;;11.70;7.73;;;14.60;73.30;;;;;;5025934;28;20183;-57
2023/06/10 01:10:13;;;;;;;9.70;7.40;;;14.50;74.10;;;;;;5026727;28;20438;-56
2023/06/10 01:12:48;;;;;;;9.57;8.57;;;14.50;74.70;;;;;;5019643;28;20442;-55
2023/06/10 01:15:15;;;;;;;10.13;8.10;;;14.50;75.30;;;;;;5021999;28;20810;-57
2023/06/10 01:18:01;;;;;;;9.03;8.10;;;14.50;76.20;;;;;;5010392;28;20423;-55
2023/06/10 01:20:32;;;;;;;11.60;9.00;;;14.40;77.10;;;;;;5022357;28;20433;-56
2023/06/10 01:23:02;;;;;;;11.90;8.60;;;14.40;77.70;;;;;;5022264;28;20803;-57
2023/06/10 01:25:32;;;;;;;9.70;8.20;;;14.40;78.10;;;;;;5025254;28;20465;-55
2023/06/10 01:28:06;;;;;;;9.90;8.53;;;14.40;78.60;;;;;;5027468;28;20435;-55
2023/06/10 01:30:39;;;;;;;11.03;8.60;;;14.40;78.90;;;;;;5024581;28;20467;-56
2023/06/10 01:33:09;;;;;;;8.13;7.33;;;14.30;79.60;;;;;;5027235;28;20435;-57
2023/06/10 01:35:37;;;;;;;14.60;9.00;;;14.30;80.20;;;;;;5019964;28;20986;-57
2023/06/10 01:38:03;;;;;;;10.73;8.67;;;14.30;80.50;;;;;;5008318;28;20442;-56
2023/06/10 01:40:30;;;;;;;10.10;8.33;;;14.30;81.40;;;;;;5026679;28;20819;-57
2023/06/10 01:42:56;;;;;;;10.30;8.60;;;14.20;81.50;;;;;;5007671;28;20458;-56
2023/06/10 01:45:22;;;;;;;9.40;8.13;;;14.20;81.30;;;;;;5025683;28;20459;-55
2023/06/10 01:47:47;;;;;;;10.43;8.53;;;14.20;81.70;;;;;;5029977;28;20172;-55
2023/06/10 01:50:13;;;;;;;13.80;10.83;;;14.20;82.50;;;;;;5025282;28;20199;-57
2023/06/10 01:52:38;;;;;;;11.23;9.87;;;14.20;82.50;;;;;;5023494;28;20203;-57
2023/06/10 01:55:04;;;;;;;10.27;9.20;;;14.20;83.00;;;;;;5029401;28;20223;-56
2023/06/10 01:57:30;;;;;;;9.77;8.73;;;14.10;84.70;;;;;;5029445;28;20186;-56
2023/06/10 01:59:56;;;;;;;13.40;9.33;;;14.10;84.90;;;;;;5021255;28;20526;-57
2023/06/10 02:02:22;;;;;;;10.97;9.07;;;14.10;85.40;;;;;;5028408;28;20257;-56
2023/06/10 02:04:47;;;;;;;13.07;8.80;;;14.10;85.20;;;;;;5027799;28;20230;-55
2023/06/10 02:07:13;;;;;;;9.97;8.40;;;14.20;85.10;;;;;;5026709;28;20427;-56
2023/06/10 02:09:39;;;;;;;12.93;9.27;;;14.20;84.70;;;;;;5022230;28;20181;-57
2023/06/10 02:12:06;;;;;;;11.60;9.87;;;14.20;84.50;;;;;;5025030;28;20687;-56
2023/06/10 02:14:33;;;;;;;14.43;8.00;;;14.20;84.30;;;;;;5024315;28;20167;-57
2023/06/10 02:16:58;;;;;;;12.20;8.70;;;14.10;84.60;;;;;;5025542;28;20484;-56
2023/06/10 02:19:26;;;;;;;10.90;8.70;;;14.10;84.90;;;;;;5019103;28;20464;-56
2023/06/10 02:21:52;;;;;;;9.67;8.67;;;14.00;84.40;;;;;;5021219;28;20172;-57
2023/06/10 02:24:17;;;;;;;12.33;8.83;;;14.00;85.30;;;;;;5028205;28;20450;-55
2023/06/10 02:26:43;;;;;;;14.23;9.50;;;13.90;85.80;;;;;;5022714;28;20294;-58
2023/06/10 02:29:09;;;;;;;12.50;9.47;;;13.90;87.20;;;;;;5024427;28;20539;-57
2023/06/10 02:31:35;;;;;;;11.57;8.93;;;13.80;87.40;;;;;;5025080;28;20175;-57
2023/06/10 02:34:01;;;;;;;10.53;9.00;;;13.80;87.70;;;;;;5023855;28;20438;-56
2023/06/10 02:36:27;;;;;;;11.33;9.30;;;13.70;89.00;;;;;;5022866;28;20657;-57
2023/06/10 02:38:53;;;;;;;11.67;10.13;;;13.70;89.60;;;;;;5024538;28;20518;-57
2023/06/10 02:41:19;;;;;;;13.33;10.10;;;13.70;90.20;;;;;;5028874;28;20186;-57
2023/06/10 02:43:44;;;;;;;10.20;9.20;;;13.70;90.90;;;;;;5022971;28;21001;-57
2023/06/10 02:46:10;;;;;;;12.07;9.57;;;13.60;91.10;;;;;;5024978;28;20290;-56
2023/06/10 02:48:43;;;;;;;17.57;9.80;;;13.60;91.50;;;;;;5026347;28;20608;-57
2023/06/10 02:51:10;;;;;;;15.07;9.73;;;13.60;91.70;;;;;;5025253;28;20191;-56
2023/06/10 02:53:36;;;;;;;12.57;9.80;;;13.60;92.00;;;;;;5022701;28;20455;-57
2023/06/10 02:56:01;;;;;;;12.67;9.67;;;13.60;92.30;;;;;;5025008;28;20465;-56
2023/06/10 02:58:27;;;;;;;15.20;10.40;;;13.50;92.50;;;;;;5025703;28;20267;-55
2023/06/10 03:00:53;;;;;;;12.17;9.23;;;13.50;93.10;;;;;;5023400;28;20203;-57
2023/06/10 03:03:18;;;;;;;13.37;9.87;;;13.40;93.30;;;;;;5020484;28;20815;-56
2023/06/10 03:05:44;;;;;;;11.47;9.40;;;13.40;93.70;;;;;;5023644;28;20275;-55
2023/06/10 03:08:10;;;;;;;13.40;9.63;;;13.40;93.80;;;;;;5023687;28;20649;-57
2023/06/10 03:10:35;;;;;;;13.00;9.87;;;13.40;94.30;;;;;;5025012;28;20203;-61
2023/06/10 03:13:01;;;;;;;13.33;10.37;;;13.40;94.60;;;;;;5026784;28;20226;-57
2023/06/10 03:15:28;;;;;;;13.17;10.50;;;13.30;95.10;;;;;;5023402;28;20306;-56
2023/06/10 03:17:55;;;;;;;13.03;10.40;;;13.30;95.40;;;;;;5026026;28;20254;-58
2023/06/10 03:20:21;;;;;;;13.53;10.83;;;13.30;96.10;;;;;;5023050;28;20425;-58
2023/06/10 03:22:47;;;;;;;12.63;10.80;;;13.20;96.50;;;;;;5025532;28;20493;-56
2023/06/10 03:25:13;;;;;;;12.53;10.53;;;13.20;97.10;;;;;;5027150;28;20486;-57
2023/06/10 03:27:40;;;;;;;13.03;11.00;;;13.10;97.40;;;;;;5025625;28;20644;-56
2023/06/10 03:30:07;;;;;;;14.27;10.37;;;13.10;97.80;;;;;;5024130;28;20505;-57
2023/06/10 03:32:32;;;;;;;15.97;11.10;;;13.10;97.80;;;;;;5027068;28;20439;-56
2023/06/10 03:34:58;;;;;;;12.30;11.00;;;13.10;97.90;;;;;;5024832;28;20445;-56
2023/06/10 03:37:24;;;;;;;11.97;10.67;;;13.10;98.50;;;;;;5022294;28;20868;-56
2023/06/10 03:39:50;;;;;;;12.80;10.60;;;13.10;98.40;;;;;;5018099;28;20172;-55
2023/06/10 03:42:16;;;;;;;15.70;10.80;;;13.10;98.80;;;;;;5027208;28;20927;-56
2023/06/10 03:44:41;;;;;;;13.63;11.00;;;13.10;99.00;;;;;;5022793;28;20176;-56
2023/06/10 03:47:07;;;;;;;13.13;10.90;;;13.00;99.00;;;;;;5026566;28;20257;-58
2023/06/10 03:49:32;;;;;;;14.60;11.10;;;13.00;99.40;;;;;;5012577;28;20577;-56
2023/06/10 03:51:58;;;;;;;12.03;10.47;;;13.00;99.40;;;;;;5024239;28;20778;-55
2023/06/10 03:54:24;;;;;;;13.30;10.40;;;13.00;99.40;;;;;;5026195;28;20168;-56
2023/06/10 03:56:50;;;;;;;13.57;11.10;;;13.00;99.80;;;;;;5027364;28;20429;-56
2023/06/10 03:59:16;;;;;;;15.07;11.10;;;13.00;99.70;;;;;;5026301;28;20184;-55
2023/06/10 04:01:43;;;;;;;13.37;10.90;;;13.00;99.90;;;;;;5019046;28;20172;-57
2023/06/10 04:04:10;;;;;;;14.47;10.60;;;13.00;99.90;;;;;;5023224;28;20215;-57
2023/06/10 04:06:37;;;;;;;16.97;10.97;;;13.00;99.90;;;;;;5026694;28;21491;-57
2023/06/10 04:09:03;;;;;;;14.20;11.40;;;13.00;99.90;;;;;;5021957;28;21097;-55
2023/06/10 04:11:28;;;;;;;15.40;10.63;;;13.00;99.90;;;;;;5015684;28;20465;-55
2023/06/10 04:13:54;;;;;;;14.40;12.00;;;13.00;99.90;;;;;;5023028;28;20435;-58
2023/06/10 04:16:21;;;;;;;14.63;10.80;;;13.10;99.90;;;;;;5026726;28;20178;-56
2023/06/10 04:18:46;;;;;;;19.53;11.30;;;13.10;99.90;;;;;;5022212;28;20973;-56
2023/06/10 04:21:12;;;;;;;17.70;11.93;;;13.10;99.90;;;;;;5021845;28;20434;-57
2023/06/10 04:23:38;;;;;;;15.60;11.60;;;13.10;99.90;;;;;;5022092;28;20195;-57
2023/06/10 04:26:05;;;;;;;14.37;10.93;;;13.10;99.90;;;;;;5019915;28;20196;-56
2023/06/10 04:28:31;;;;;;;10.93;9.53;;;13.20;99.90;;;;;;5018237;28;20180;-56
2023/06/10 04:30:57;;;;;;;14.73;11.90;;;13.20;99.70;;;;;;5019549;28;20768;-57
2023/06/10 04:33:24;;;;;;;13.70;11.40;;;13.20;99.30;;;;;;5019318;28;20206;-56
2023/06/10 04:35:50;;;;;;;15.10;11.60;;;13.20;99.20;;;;;;5019976;28;20419;-56
2023/06/10 04:38:16;;;;;;;11.90;10.17;;;13.20;98.90;;;;;;5017757;28;20566;-55
2023/06/10 04:40:42;;;;;;;11.83;10.57;;;13.30;99.70;;;;;;5004022;28;20517;-56
2023/06/10 04:43:07;;;;;;;13.80;11.33;;;13.30;99.70;;;;;;5016865;28;20199;-57
2023/06/10 04:45:33;;;;;;;13.37;10.63;;;13.30;99.90;;;;;;5016333;28;20206;-56
2023/06/10 04:47:58;;;;;;;13.40;11.13;;;13.40;99.90;;;;;;5007776;28;20172;-55
2023/06/10 04:50:24;;;;;;;13.77;10.97;;;13.40;99.90;;;;;;5021831;28;20206;-55
2023/06/10 04:52:50;;;;;;;15.30;11.50;;;13.50;99.60;;;;;;5018946;28;20222;-55
2023/06/10 04:55:16;;;;;;;12.93;10.43;;;13.50;99.60;;;;;;5020383;28;20457;-56
2023/06/10 04:57:41;;;;;;;17.07;11.10;;;13.60;99.90;;;;;;5017415;28;20188;-56
2023/06/10 05:00:08;;;;;;;14.63;11.40;;;13.60;99.90;;;;;;5022927;28;20441;-56
2023/06/10 05:02:34;;;;;;;12.03;10.73;;;13.70;99.90;;;;;;5023345;28;20200;-56
2023/06/10 05:05:00;;;;;;;18.93;11.13;;;13.80;99.90;;;;;;5021870;28;20425;-56
2023/06/10 05:07:25;;;;;;;16.00;10.57;;;13.90;99.60;;;;;;5027073;28;20182;-57
2023/06/10 05:09:51;;;;;;;14.10;10.23;;;14.00;99.90;;;;;;5008101;28;20437;-57
2023/06/10 05:12:17;;;;;;;15.53;11.60;;;14.00;98.70;;;;;;5023498;28;20179;-56
2023/06/10 05:14:44;;;;;;;16.93;10.50;;;14.10;98.30;;;;;;5028150;28;20186;-58
2023/06/10 05:17:10;;;;;;;13.07;11.10;;;14.20;97.10;;;;;;5029160;28;20186;-55
2023/06/10 05:19:37;;;;;;;14.43;11.10;;;14.30;97.10;;;;;;5020629;28;20418;-57
2023/06/10 05:22:03;;;;;;;17.53;11.37;;;14.30;97.30;;;;;;5021866;28;20256;-56
2023/06/10 05:24:28;;;;;;;11.63;10.43;;;14.50;96.90;;;;;;5029208;28;20518;-57
2023/06/10 05:26:54;;;;;;;14.03;10.30;;;14.60;96.20;;;;;;5025835;28;20676;-56
2023/06/10 05:29:20;;;;;;;14.00;10.33;;;14.60;95.70;;;;;;5027886;28;20216;-57
2023/06/10 05:31:45;;;;;;;16.13;10.67;;;14.70;95.00;;;;;;5009316;28;20177;-55
2023/06/10 05:34:11;;;;;;;13.33;11.20;;;14.80;93.40;;;;;;5020407;28;20664;-57
2023/06/10 05:36:37;;;;;;;12.40;10.90;;;14.90;92.90;;;;;;5009622;28;20180;-56
2023/06/10 05:39:03;;;;;;;13.40;11.20;;;15.00;93.00;;;;;;5024592;28;20190;-55
2023/06/10 05:41:29;;;;;;;13.17;11.40;;;15.10;92.40;;;;;;5021104;28;20194;-56
2023/06/10 05:43:54;;;;;;;12.97;11.50;;;15.10;91.70;;;;;;5020223;28;21017;-56
2023/06/10 05:46:21;;;;;;;13.50;11.67;;;15.20;91.80;;;;;;5026704;28;20271;-57
2023/06/10 05:48:47;;;;;;;15.13;11.20;;;15.30;91.90;;;;;;5026548;28;20207;-56
2023/06/10 05:51:12;;;;;;;14.43;11.43;;;15.40;91.70;;;;;;5026212;28;20458;-55
2023/06/10 05:53:38;;;;;;;11.97;10.40;;;15.50;91.40;;;;;;5020644;28;20192;-57
2023/06/10 05:56:04;;;;;;;15.00;10.47;;;15.60;91.40;;;;;;5025857;28;20176;-55
2023/06/10 05:58:30;;;;;;;13.10;10.63;;;15.70;90.90;;;;;;5027301;28;20172;-56
2023/06/10 06:00:55;;;;;;;11.23;10.13;;;15.70;90.60;;;;;;5027920;28;20175;-58
2023/06/10 06:03:21;;;;;;;11.67;10.13;;;15.90;90.20;;;;;;5026707;28;20199;-54
2023/06/10 06:05:47;;;;;;;11.83;9.77;;;16.10;90.10;;;;;;5026894;28;20632;-54
2023/06/10 06:08:18;;;;;;;12.37;10.30;;;16.20;90.00;;;;;;5009218;28;20229;-56
2023/06/10 06:10:47;;;;;;;14.33;10.73;;;16.30;89.50;;;;;;5025824;28;20187;-55
2023/06/10 06:13:13;;;;;;;12.40;10.70;;;16.50;88.50;;;;;;5023680;28;20430;-57
2023/06/10 06:15:39;;;;;;;11.30;10.20;;;16.70;86.10;;;;;;5024758;28;20432;-56
2023/06/10 06:18:04;;;;;;;12.67;10.40;;;16.80;83.10;;;;;;5022707;28;20191;-56
2023/06/10 06:20:30;;;;;;;12.40;10.03;;;16.90;81.90;;;;;;5026189;28;20183;-57
2023/06/10 06:22:56;;;;;;;12.23;9.70;;;17.00;80.00;;;;;;5024157;28;20204;-57
2023/06/10 06:25:21;;;;;;;10.80;9.27;;;17.20;79.00;;;;;;5027647;28;20219;-58
2023/06/10 06:27:47;;;;;;;11.97;10.10;;;17.30;77.20;;;;;;5022840;28;20494;-57
2023/06/10 06:30:13;;;;;;;9.93;8.90;;;17.40;76.70;;;;;;5023373;28;20207;-57
2023/06/10 06:32:38;;;;;;;11.80;10.00;;;17.50;76.00;;;;;;5025218;28;20286;-57
2023/06/10 06:35:07;;;;;;;10.97;9.60;;;17.60;75.40;;;;;;5025609;28;20275;-56
2023/06/10 06:37:33;;;;;;;14.37;9.97;;;17.60;75.00;;;;;;5020655;28;20282;-56
2023/06/10 06:39:59;;;;;;;12.37;9.83;;;17.80;74.40;;;;;;5022010;28;20526;-54
2023/06/10 06:42:25;;;;;;;10.93;9.77;;;17.90;74.90;;;;;;5022702;28;20199;-55
2023/06/10 06:44:50;;;;;;;14.00;9.80;;;18.00;74.70;;;;;;5027722;28;20175;-56
2023/06/10 06:47:19;;;;;;;12.30;9.00;;;18.10;73.80;;;;;;5024293;28;20229;-56
2023/06/10 06:49:45;;;;;;;10.47;9.37;;;18.30;72.60;;;;;;5020513;28;20183;-56
2023/06/10 06:52:11;;;;;;;14.13;8.80;;;18.40;71.20;;;;;;5020630;28;20462;-57
2023/06/10 06:54:37;;;;;;;10.53;8.60;;;18.60;70.10;;;;;;5026111;28;20457;-57
2023/06/10 06:57:03;;;;;;;13.53;9.60;;;18.70;69.20;;;;;;5022533;28;20554;-55
2023/06/10 06:59:28;;;;;;;14.30;8.53;;;18.90;68.20;;;;;;5024616;28;20218;-57
2023/06/10 07:01:54;;;;;;;11.00;8.53;;;19.10;67.30;;;;;;5019644;28;20181;-57
2023/06/10 07:04:21;;;;;;;10.13;8.70;;;19.20;66.60;;;;;;5022332;28;20199;-56
2023/06/10 07:06:48;;;;;;;11.33;8.00;;;19.40;66.20;;;;;;5027758;28;20503;-56
2023/06/10 07:09:13;;;;;;;11.47;9.03;;;19.50;65.80;;;;;;5024994;28;20430;-56
2023/06/10 07:11:39;;;;;;;9.57;8.47;;;19.60;65.30;;;;;;5023218;28;20418;-56
2023/06/10 07:14:05;;;;;;;11.00;8.93;;;19.70;64.40;;;;;;5018663;28;20282;-57
2023/06/10 07:16:30;;;;;;;9.23;8.20;;;19.80;64.20;;;;;;5022668;28;20194;-57
2023/06/10 07:18:56;;;;;;;9.13;8.00;;;19.80;63.80;;;;;;5020856;28;20577;-56
2023/06/10 07:21:23;;;;;;;12.30;9.00;;;19.80;63.30;;;;;;5026886;28;20214;-58
2023/06/10 07:23:48;;;;;;;9.80;8.30;;;19.90;63.10;;;;;;5026346;28;20210;-55
2023/06/10 07:26:14;;;;;;;13.00;7.97;;;20.00;63.10;;;;;;5020502;28;20480;-56
2023/06/10 07:28:43;;;;;;;12.20;8.30;;;20.00;63.00;;;;;;5019629;28;20168;-57
2023/06/10 07:31:09;;;;;;;10.53;7.90;;;20.10;63.10;;;;;;5028519;28;20176;-56
2023/06/10 07:33:36;;;;;;;9.80;8.27;;;20.20;62.50;;;;;;5019570;28;20443;-56
2023/06/10 07:36:02;;;;;;;18.57;8.17;;;20.30;62.30;;;;;;5024234;28;20677;-57
2023/06/10 07:38:27;;;;;;;10.53;7.80;;;20.40;62.30;;;;;;5024851;28;20442;-55
2023/06/10 07:40:53;;;;;;;10.43;7.90;;;20.50;62.00;;;;;;5023060;28;20207;-57
2023/06/10 07:43:19;;;;;;;8.50;7.50;;;20.60;61.20;;;;;;5023480;28;20203;-58
2023/06/10 07:45:44;;;;;;;11.23;7.80;;;20.70;60.70;;;;;;5021850;28;20219;-57
2023/06/10 07:48:10;;;;;;;8.73;7.87;;;20.80;60.30;;;;;;5023295;28;20199;-57
2023/06/10 07:50:36;;;;;;;8.60;7.80;;;20.90;60.30;;;;;;5020727;28;20199;-56
2023/06/10 07:53:02;;;;;;;8.27;7.40;;;20.90;59.70;;;;;;5020164;28;20204;-56
2023/06/10 07:55:27;;;;;;;10.60;7.90;;;21.00;59.40;;;;;;5026746;28;20241;-56
2023/06/10 07:57:54;;;;;;;10.77;7.97;;;21.00;59.10;;;;;;5026371;28;20183;-57
2023/06/10 08:00:20;;;;;;;9.00;7.43;;;21.10;59.20;;;;;;5020562;28;20552;-57
2023/06/10 08:02:46;;;;;;;11.57;7.70;;;21.20;59.30;;;;;;5021089;28;20968;-57
2023/06/10 08:05:11;;;;;;;7.97;7.17;;;21.30;59.20;;;;;;5023617;28;20446;-57
2023/06/10 08:07:37;;;;;;;9.77;7.40;;;21.30;58.20;;;;;;5020476;28;20249;-56
2023/06/10 08:10:04;;;;;;;12.13;7.63;;;21.40;57.50;;;;;;5025816;28;20194;-57
2023/06/10 08:12:29;;;;;;;8.07;6.93;;;21.50;57.10;;;;;;5021243;28;20198;-57
2023/06/10 08:14:55;;;;;;;9.80;7.30;;;21.60;57.50;;;;;;5024505;28;20410;-57
2023/06/10 08:17:21;;;;;;;8.50;7.20;;;21.80;58.20;;;;;;5023988;28;20564;-56
2023/06/10 08:19:47;;;;;;;13.40;7.20;;;21.90;57.20;;;;;;5024775;28;20552;-55
2023/06/10 08:22:12;;;;;;;13.20;6.87;;;22.00;57.70;;;;;;5022613;28;20422;-56
2023/06/10 08:24:38;;;;;;;10.00;7.40;;;22.10;57.20;;;;;;5023793;28;20203;-57
2023/06/10 08:27:05;;;;;;;9.60;6.77;;;22.10;56.80;;;;;;5023850;28;20203;-56
2023/06/10 08:29:31;;;;;;;8.07;7.00;;;22.20;56.50;;;;;;5023848;28;20183;-57
2023/06/10 08:31:57;;;;;;;7.93;7.00;;;22.20;56.50;;;;;;5023386;28;20423;-57
2023/06/10 08:34:23;;;;;;;9.27;7.50;;;22.30;56.70;;;;;;5022939;28;20507;-58
2023/06/10 08:36:53;;;;;;;10.43;7.73;;;22.30;56.20;;;;;;5021495;28;20211;-58
2023/06/10 08:39:19;;;;;;;8.70;6.40;;;22.30;55.90;;;;;;5028139;28;20463;-56
2023/06/10 08:41:58;;;;;;;8.57;6.60;;;22.40;55.60;;;;;;5025928;28;20791;-57
2023/06/10 08:44:30;;;;;;;9.00;7.40;;;22.40;54.60;;;;;;5028056;28;20570;-56
2023/06/10 08:46:59;;;;;;;7.53;6.70;;;22.50;55.10;;;;;;5026381;28;20516;-56
2023/06/10 08:49:28;;;;;;;8.13;6.10;;;22.60;54.70;;;;;;5021842;28;20438;-58
2023/06/10 08:52:02;;;;;;;8.30;7.03;;;22.60;54.50;;;;;;5023526;28;20467;-56
2023/06/10 08:54:31;;;;;;;8.70;7.03;;;22.70;54.70;;;;;;5030589;28;20834;-56
2023/06/10 08:56:59;;;;;;;7.37;6.13;;;22.70;54.20;;;;;;5029927;28;20434;-58
2023/06/10 08:59:25;;;;;;;8.33;6.67;;;22.80;54.10;;;;;;5021742;28;20513;-57
2023/06/10 09:01:53;;;;;;;6.97;6.27;;;22.90;54.30;;;;;;5027373;28;21001;-57
2023/06/10 09:04:20;;;;;;;9.87;7.00;;;22.90;53.70;;;;;;5028774;28;20828;-57
2023/06/10 09:06:48;;;;;;;8.23;7.17;;;23.00;53.10;;;;;;5029061;28;20480;-56
2023/06/10 09:09:15;;;;;;;9.57;7.00;;;23.10;52.80;;;;;;5026802;28;20410;-56
2023/06/10 09:11:42;;;;;;;9.03;6.53;;;23.20;53.40;;;;;;5024501;28;20423;-57
2023/06/10 09:14:08;;;;;;;8.47;7.30;;;23.40;53.80;;;;;;5028504;28;20430;-57
2023/06/10 09:16:35;;;;;;;8.77;6.33;;;23.50;53.00;;;;;;5028919;28;20962;-55
2023/06/10 09:19:07;;;;;;;7.70;6.90;;;23.60;53.10;;;;;;5025998;28;20326;-56
2023/06/10 09:21:33;;;;;;;8.37;6.90;;;23.70;53.10;;;;;;5030005;28;20414;-56
2023/06/10 09:23:59;;;;;;;9.37;6.87;;;23.80;52.30;;;;;;5024226;28;20451;-57
2023/06/10 09:26:29;;;;;;;9.30;7.90;;;23.80;52.60;;;;;;5026224;28;20499;-57
2023/06/10 09:29:05;;;;;;;9.50;6.77;;;23.90;52.10;;;;;;5024819;28;20180;-56
2023/06/10 09:31:33;;;;;;;7.47;6.70;;;23.90;52.00;;;;;;5023148;28;20517;-56
2023/06/10 09:34:12;;;;;;;7.47;6.77;;;24.00;52.70;;;;;;5026858;28;20445;-57
2023/06/10 09:36:38;;;;;;;7.63;6.90;;;24.10;52.90;;;;;;5022309;28;20442;-57
2023/06/10 09:39:12;;;;;;;7.63;6.70;;;24.30;51.90;;;;;;5024975;28;20445;-58
2023/06/10 09:41:41;;;;;;;7.17;6.40;;;24.40;49.90;;;;;;5025533;28;21198;-57
2023/06/10 09:44:21;;;;;;;7.90;6.83;;;24.30;50.30;;;;;;5023154;28;20438;-56
2023/06/10 09:46:50;;;;;;;8.47;7.20;;;24.30;50.80;;;;;;5020173;28;20490;-56
2023/06/10 09:49:16;;;;;;;7.83;7.03;;;24.40;51.20;;;;;;5023720;28;20944;-56
2023/06/10 09:51:53;;;;;;;8.57;6.67;;;24.50;50.70;;;;;;5022741;28;20434;-56
2023/06/10 09:54:19;;;;;;;7.40;6.60;;;24.50;51.20;;;;;;5024605;28;20449;-57
2023/06/10 09:56:48;;;;;;;8.10;7.20;;;24.70;50.70;;;;;;5021538;28;20415;-58
2023/06/10 09:59:13;;;;;;;7.53;6.73;;;24.90;50.40;;;;;;5027689;28;20469;-57
2023/06/10 10:01:39;;;;;;;13.67;6.90;;;24.80;49.20;;;;;;5028355;28;20462;-57
2023/06/10 10:04:04;;;;;;;7.00;6.40;;;24.60;48.90;;;;;;5027624;28;20195;-57
2023/06/10 10:06:30;;;;;;;9.30;7.23;;;24.50;49.40;;;;;;5022181;28;20779;-57
2023/06/10 10:08:56;;;;;;;9.27;7.33;;;24.50;49.10;;;;;;5026267;28;20213;-57
2023/06/10 10:11:23;;;;;;;7.13;6.43;;;24.70;48.60;;;;;;5026160;28;20179;-57
2023/06/10 10:13:50;;;;;;;7.60;6.60;;;24.90;49.30;;;;;;5029191;28;20238;-57
2023/06/10 10:16:22;;;;;;;8.27;6.63;;;25.20;49.20;;;;;;5027632;28;20425;-57
2023/06/10 10:18:55;;;;;;;7.20;6.50;;;25.50;48.10;;;;;;5016528;28;20541;-57
2023/06/10 10:21:26;;;;;;;15.67;7.53;;;25.60;47.20;;;;;;5025386;28;20487;-58
2023/06/10 10:24:02;;;;;;;7.60;6.53;;;25.70;47.60;;;;;;5023459;28;20509;-57
2023/06/10 10:26:31;;;;;;;7.70;6.70;;;25.90;47.70;;;;;;5027453;28;21003;-57
2023/06/10 10:29:37;;;;;;;8.77;6.80;;;25.90;47.00;;;;;;5028311;28;20445;-57
2023/06/10 10:32:05;;;;;;;8.27;7.03;;;25.60;46.90;;;;;;5026266;28;20506;-57
2023/06/10 10:34:39;;;;;;;8.47;7.57;;;25.30;47.30;;;;;;5022746;28;20532;-57
2023/06/10 10:37:05;;;;;;;7.70;6.90;;;25.00;47.80;;;;;;5028637;28;20442;-57
2023/06/10 10:39:32;;;;;;;9.43;7.37;;;24.70;47.80;;;;;;5027410;28;20452;-57
2023/06/10 10:41:58;;;;;;;7.47;6.43;;;24.80;48.00;;;;;;5027272;28;20167;-58
2023/06/10 10:44:25;;;;;;;7.33;6.67;;;24.90;48.10;;;;;;5022674;28;20824;-58
2023/06/10 10:46:51;;;;;;;10.00;5.93;;;25.00;47.40;;;;;;5025996;28;20213;-56
2023/06/10 10:49:18;;;;;;;8.43;6.57;;;25.00;47.70;;;;;;5026536;28;20418;-57
2023/06/10 10:51:57;;;;;;;6.73;6.03;;;25.10;47.40;;;;;;5027438;28;20564;-58
2023/06/10 10:54:33;;;;;;;6.60;5.90;;;25.10;47.50;;;;;;5022040;28;20449;-57
2023/06/10 10:57:14;;;;;;;9.27;6.10;;;25.30;47.00;;;;;;5025353;28;20430;-58
2023/06/10 11:00:01;;;;;;;7.57;5.90;;;25.70;46.80;;;;;;5022329;28;20437;-57
2023/06/10 11:02:45;;;;;;;7.53;6.50;;;25.90;46.10;;;;;;5018459;28;20464;-58
2023/06/10 11:05:14;;;;;;;7.17;6.47;;;25.80;45.90;;;;;;5021326;28;20449;-59
2023/06/10 11:07:40;;;;;;;7.10;6.40;;;25.70;46.50;;;;;;5023349;28;21014;-57
2023/06/10 11:10:11;;;;;;;7.17;6.47;;;25.80;46.60;;;;;;5026042;28;20521;-58
2023/06/10 11:12:45;;;;;;;7.17;5.77;;;26.00;46.90;;;;;;5024099;28;20200;-58
2023/06/10 11:15:31;;;;;;;8.43;6.40;;;26.30;46.20;;;;;;5020641;28;20919;-58
2023/06/10 11:18:06;;;;;;;6.60;6.00;;;26.60;46.00;;;;;;5024644;28;20947;-58
2023/06/10 11:20:50;;;;;;;7.37;6.67;;;26.50;44.80;;;;;;5025301;28;20448;-56
2023/06/10 11:23:27;;;;;;;6.90;5.80;;;26.20;45.00;;;;;;5025646;28;20522;-58
2023/06/10 11:26:34;;;;;;;8.47;6.30;;;25.90;44.30;;;;;;5018391;28;20461;-58
2023/06/10 11:28:59;;;;;;;7.07;6.37;;;25.60;45.20;;;;;;5022155;28;20461;-57
2023/06/10 11:31:43;;;;;;;6.60;5.90;;;25.80;45.90;;;;;;5026019;28;21118;-57
2023/06/10 11:34:09;;;;;;;6.93;5.60;;;26.10;45.80;;;;;;5023947;28;20206;-58
2023/06/10 11:36:40;;;;;;;6.40;5.00;;;26.50;44.90;;;;;;5021387;28;20441;-57
2023/06/10 11:39:06;;;;;;;6.33;5.20;;;26.80;45.00;;;;;;5024200;28;20488;-57
2023/06/10 11:41:33;;;;;;;5.53;4.97;;;27.10;44.40;;;;;;5023691;28;20783;-57
2023/06/10 11:44:13;;;;;;;6.40;4.90;;;27.20;42.70;;;;;;5021135;28;20445;-57
2023/06/10 11:46:39;;;;;;;5.30;4.80;;;27.10;42.60;;;;;;5023311;28;20195;-58
2023/06/10 11:49:05;;;;;;;5.47;4.97;;;26.80;41.70;;;;;;5021094;28;20713;-57
2023/06/10 11:51:36;;;;;;;6.70;5.43;;;26.40;42.20;;;;;;5020142;28;20431;-57
2023/06/10 11:54:02;;;;;;;4.87;4.43;;;26.00;42.70;;;;;;5026329;28;20465;-58
2023/06/10 11:56:30;;;;;;;5.37;4.67;;;25.70;42.80;;;;;;5028120;28;20461;-57
2023/06/10 11:58:55;;;;;;;6.40;5.47;;;25.40;43.20;;;;;;5016711;28;20414;-57
2023/06/10 12:01:22;;;;;;;8.10;6.07;;;25.40;44.20;;;;;;5022301;28;20433;-57
2023/06/10 12:03:56;;;;;;;4.87;4.40;;;25.70;45.00;;;;;;5023860;28;20726;-56
2023/06/10 12:06:22;;;;;;;4.60;4.20;;;26.20;43.40;;;;;;5025285;28;20462;-57
2023/06/10 12:08:48;;;;;;;5.67;4.60;;;26.60;42.80;;;;;;5023653;28;20437;-57
2023/06/10 12:11:13;;;;;;;31.67;6.40;;;27.00;42.40;;;;;;5024228;28;20671;-57
2023/06/10 12:13:48;;;;;;;9.60;3.77;;;27.40;42.20;;;;;;5022268;28;20199;-57
2023/06/10 12:16:14;;;;;;;4.80;3.97;;;27.40;41.30;;;;;;5022308;28;20217;-58
2023/06/10 12:18:40;;;;;;;3.80;3.50;;;27.20;41.00;;;;;;5025647;28;20637;-57
2023/06/10 12:21:19;;;;;;;4.70;3.87;;;27.30;41.40;;;;;;5024267;28;20176;-58
2023/06/10 12:24:07;;;;;;;5.00;3.53;;;27.70;41.40;;;;;;5019273;28;20313;-57
2023/06/10 12:26:44;;;;;;;4.03;3.63;;;28.10;41.20;;;;;;5025065;28;20203;-56
2023/06/10 12:29:18;;;;;;;2.67;2.47;;;28.50;40.10;;;;;;5021229;28;20171;-58
2023/06/10 12:32:04;;;;;;;8.40;3.17;;;28.80;38.70;;;;;;5021379;28;20553;-58
2023/06/10 12:34:33;;;;;;;3.90;3.50;;;29.00;38.10;;;;;;5022519;28;20222;-58
2023/06/10 12:36:59;;;;;;;4.00;3.10;;;29.20;38.20;;;;;;5022184;28;20184;-56
2023/06/10 12:39:25;;;;;;;30.75;7.47;;;29.50;38.80;;;;;;5024390;28;20255;-58
2023/06/10 12:41:54;;;;;;;17.48;4.57;;;29.70;38.80;;;;;;5025311;28;20191;-58